sensor_id;sensor_type;location;lat;lon;timestamp;pressure;altitude;pressure_sealevel;temperature;humidity
62025;BME280;47978;49.118;12.146;2023-04-25T00:01:49;96811.69;;;6.21;89.08
62025;BME280;47978;49.118;12.146;2023-04-25T00:05:52;96812.50;;;6.22;88.96
62025;BME280;47978;49.118;12.146;2023-04-25T00:09:54;96813.13;;;6.14;89.53
62025;BME280;47978;49.118;12.146;2023-04-25T00:13:55;96805.28;;;6.26;89.07
62025;BME280;47978;49.118;12.146;2023-04-25T00:17:57;96796.31;;;6.20;89.40
62025;BME280;47978;49.118;12.146;2023-04-25T00:21:59;96791.41;;;6.17;89.49
62025;BME280;47978;49.118;12.146;2023-04-25T00:26:01;96788.31;;;6.24;89.57
62025;BME280;47978;49.118;12.146;2023-04-25T00:30:03;96794.31;;;6.26;89.48
62025;BME280;47978;49.118;12.146;2023-04-25T00:34:05;96791.81;;;6.29;89.19
62025;BME280;47978;49.118;12.146;2023-04-25T00:38:08;96796.97;;;6.31;89.29
62025;BME280;47978;49.118;12.146;2023-04-25T00:42:09;96794.31;;;6.26;89.26
62025;BME280;47978;49.118;12.146;2023-04-25T00:46:11;96802.34;;;6.41;89.06
62025;BME280;47978;49.118;12.146;2023-04-25T00:50:12;96793.66;;;6.34;89.34
62025;BME280;47978;49.118;12.146;2023-04-25T00:54:15;96794.78;;;6.33;89.25
62025;BME280;47978;49.118;12.146;2023-04-25T00:58:17;96786.22;;;6.35;89.16
62025;BME280;47978;49.118;12.146;2023-04-25T01:02:19;96783.31;;;6.26;89.56
62025;BME280;47978;49.118;12.146;2023-04-25T01:06:20;96782.00;;;6.23;89.69
62025;BME280;47978;49.118;12.146;2023-04-25T01:10:23;96766.72;;;6.36;89.61
62025;BME280;47978;49.118;12.146;2023-04-25T01:14:25;96780.06;;;6.24;89.81
62025;BME280;47978;49.118;12.146;2023-04-25T01:18:26;96780.06;;;6.24;89.86
62025;BME280;47978;49.118;12.146;2023-04-25T01:22:29;96792.69;;;6.25;89.60
62025;BME280;47978;49.118;12.146;2023-04-25T01:26:30;96783.84;;;6.28;89.99
62025;BME280;47978;49.118;12.146;2023-04-25T01:30:32;96786.75;;;6.18;90.05
62025;BME280;47978;49.118;12.146;2023-04-25T01:34:33;96786.16;;;6.21;90.42
62025;BME280;47978;49.118;12.146;2023-04-25T01:38:36;96782.28;;;6.22;90.11
62025;BME280;47978;49.118;12.146;2023-04-25T01:42:39;96775.84;;;6.31;89.66
62025;BME280;47978;49.118;12.146;2023-04-25T01:46:40;96776.44;;;6.28;90.33
62025;BME280;47978;49.118;12.146;2023-04-25T01:50:42;96774.66;;;6.38;89.89
62025;BME280;47978;49.118;12.146;2023-04-25T01:54:45;96778.72;;;6.40;89.60
62025;BME280;47978;49.118;12.146;2023-04-25T01:58:46;96785.34;;;6.39;89.55
62025;BME280;47978;49.118;12.146;2023-04-25T02:02:48;96785.50;;;6.29;90.30
62025;BME280;47978;49.118;12.146;2023-04-25T02:06:49;96783.78;;;6.33;90.32
62025;BME280;47978;49.118;12.146;2023-04-25T02:10:52;96770.28;;;6.37;90.19
62025;BME280;47978;49.118;12.146;2023-04-25T02:14:53;96776.28;;;6.39;90.13
62025;BME280;47978;49.118;12.146;2023-04-25T02:18:55;96767.75;;;6.40;90.39
62025;BME280;47978;49.118;12.146;2023-04-25T02:22:56;96773.47;;;6.44;90.33
62025;BME280;47978;49.118;12.146;2023-04-25T02:26:59;96765.75;;;6.46;90.37
62025;BME280;47978;49.118;12.146;2023-04-25T02:31:00;96766.72;;;6.55;90.23
62025;BME280;47978;49.118;12.146;2023-04-25T02:35:02;96766.03;;;6.63;89.80
62025;BME280;47978;49.118;12.146;2023-04-25T02:39:03;96762.69;;;6.66;89.84
62025;BME280;47978;49.118;12.146;2023-04-25T02:43:06;96746.50;;;6.65;89.64
62025;BME280;47978;49.118;12.146;2023-04-25T02:47:08;96757.41;;;6.70;89.71
62025;BME280;47978;49.118;12.146;2023-04-25T02:51:09;96752.53;;;6.67;89.53
62025;BME280;47978;49.118;12.146;2023-04-25T02:55:10;96746.63;;;6.73;89.08
62025;BME280;47978;49.118;12.146;2023-04-25T02:59:13;96748.38;;;6.69;88.85
62025;BME280;47978;49.118;12.146;2023-04-25T03:03:15;96741.00;;;6.65;89.18
62025;BME280;47978;49.118;12.146;2023-04-25T03:07:16;96736.78;;;6.53;89.81
62025;BME280;47978;49.118;12.146;2023-04-25T03:11:17;96737.72;;;6.49;90.18
62025;BME280;47978;49.118;12.146;2023-04-25T03:15:20;96730.78;;;6.51;89.97
62025;BME280;47978;49.118;12.146;2023-04-25T03:19:22;96729.16;;;6.50;89.57
62025;BME280;47978;49.118;12.146;2023-04-25T03:23:23;96727.75;;;6.53;88.94
62025;BME280;47978;49.118;12.146;2023-04-25T03:27:24;96719.28;;;6.49;89.52
62025;BME280;47978;49.118;12.146;2023-04-25T03:31:27;96717.56;;;6.53;88.88
62025;BME280;47978;49.118;12.146;2023-04-25T03:35:29;96723.13;;;6.48;88.69
62025;BME280;47978;49.118;12.146;2023-04-25T03:39:30;96721.78;;;6.46;88.75
62025;BME280;47978;49.118;12.146;2023-04-25T03:43:31;96721.50;;;6.47;88.58
62025;BME280;47978;49.118;12.146;2023-04-25T03:47:34;96727.19;;;6.70;88.23
62025;BME280;47978;49.118;12.146;2023-04-25T03:51:36;96731.44;;;6.62;88.02
62025;BME280;47978;49.118;12.146;2023-04-25T03:55:37;96741.75;;;6.51;88.57
62025;BME280;47978;49.118;12.146;2023-04-25T03:59:38;96738.97;;;6.38;89.38
62025;BME280;47978;49.118;12.146;2023-04-25T04:03:41;96740.38;;;6.35;89.58
62025;BME280;47978;49.118;12.146;2023-04-25T04:07:43;96734.56;;;6.37;89.68
62025;BME280;47978;49.118;12.146;2023-04-25T04:11:44;96733.25;;;6.34;89.81
62025;BME280;47978;49.118;12.146;2023-04-25T04:15:46;96728.19;;;6.41;89.45
62025;BME280;47978;49.118;12.146;2023-04-25T04:19:49;96718.63;;;6.58;89.00
62025;BME280;47978;49.118;12.146;2023-04-25T04:23:50;96722.91;;;6.45;89.30
62025;BME280;47978;49.118;12.146;2023-04-25T04:27:52;96725.88;;;6.48;89.29
62025;BME280;47978;49.118;12.146;2023-04-25T04:31:53;96735.44;;;6.70;88.37
62025;BME280;47978;49.118;12.146;2023-04-25T04:35:56;96730.56;;;6.67;88.44
62025;BME280;47978;49.118;12.146;2023-04-25T04:39:58;96730.34;;;6.77;87.74
62025;BME280;47978;49.118;12.146;2023-04-25T04:43:59;96720.22;;;6.78;88.24
62025;BME280;47978;49.118;12.146;2023-04-25T04:48:00;96715.56;;;6.92;87.38
62025;BME280;47978;49.118;12.146;2023-04-25T04:52:03;96724.53;;;6.97;87.28
62025;BME280;47978;49.118;12.146;2023-04-25T04:56:05;96731.97;;;7.11;86.97
62025;BME280;47978;49.118;12.146;2023-04-25T05:00:07;96730.06;;;7.25;86.64
62025;BME280;47978;49.118;12.146;2023-04-25T05:04:08;96723.06;;;7.33;86.27
62025;BME280;47978;49.118;12.146;2023-04-25T05:08:11;96725.31;;;7.44;85.97
62025;BME280;47978;49.118;12.146;2023-04-25T05:12:13;96719.63;;;7.69;85.59
62025;BME280;47978;49.118;12.146;2023-04-25T05:16:14;96714.41;;;7.81;84.67
62025;BME280;47978;49.118;12.146;2023-04-25T05:20:16;96727.00;;;7.96;84.12
62025;BME280;47978;49.118;12.146;2023-04-25T05:24:18;96724.16;;;8.01;83.89
62025;BME280;47978;49.118;12.146;2023-04-25T05:28:20;96723.97;;;8.33;82.30
62025;BME280;47978;49.118;12.146;2023-04-25T05:32:21;96726.66;;;8.61;77.06
62025;BME280;47978;49.118;12.146;2023-04-25T05:36:23;96725.34;;;9.04;75.54
62025;BME280;47978;49.118;12.146;2023-04-25T05:40:25;96729.34;;;9.20;74.13
62025;BME280;47978;49.118;12.146;2023-04-25T05:44:27;96719.00;;;9.65;72.74
62025;BME280;47978;49.118;12.146;2023-04-25T05:48:29;96720.63;;;11.11;66.69
62025;BME280;47978;49.118;12.146;2023-04-25T05:52:30;96708.75;;;10.84;66.42
62025;BME280;47978;49.118;12.146;2023-04-25T05:56:33;96724.22;;;10.33;67.90
62025;BME280;47978;49.118;12.146;2023-04-25T06:00:34;96724.31;;;9.62;70.24
62025;BME280;47978;49.118;12.146;2023-04-25T06:04:35;96708.78;;;9.66;69.61
62025;BME280;47978;49.118;12.146;2023-04-25T06:08:37;96717.66;;;10.20;68.42
62025;BME280;47978;49.118;12.146;2023-04-25T06:12:40;96715.91;;;10.33;67.86
62025;BME280;47978;49.118;12.146;2023-04-25T06:16:41;96712.00;;;10.95;66.65
62025;BME280;47978;49.118;12.146;2023-04-25T06:20:43;96713.34;;;12.21;62.69
62025;BME280;47978;49.118;12.146;2023-04-25T06:24:44;96698.31;;;13.18;59.72
62025;BME280;47978;49.118;12.146;2023-04-25T06:28:47;96705.38;;;12.62;59.65
62025;BME280;47978;49.118;12.146;2023-04-25T06:32:48;96699.66;;;11.86;61.37
62025;BME280;47978;49.118;12.146;2023-04-25T06:36:49;96699.91;;;11.64;63.86
62025;BME280;47978;49.118;12.146;2023-04-25T06:40:51;96697.53;;;11.54;63.77
62025;BME280;47978;49.118;12.146;2023-04-25T06:44:54;96701.22;;;12.05;62.92
62025;BME280;47978;49.118;12.146;2023-04-25T06:48:55;96699.00;;;11.89;62.59
62025;BME280;47978;49.118;12.146;2023-04-25T06:52:56;96698.13;;;11.68;62.51
62025;BME280;47978;49.118;12.146;2023-04-25T06:56:58;96700.28;;;12.22;61.08
62025;BME280;47978;49.118;12.146;2023-04-25T07:01:00;96702.78;;;12.14;60.64
62025;BME280;47978;49.118;12.146;2023-04-25T07:05:02;96706.34;;;12.15;61.14
62025;BME280;47978;49.118;12.146;2023-04-25T07:09:03;96707.28;;;11.98;60.49
62025;BME280;47978;49.118;12.146;2023-04-25T07:13:05;96701.31;;;11.87;60.55
62025;BME280;47978;49.118;12.146;2023-04-25T07:17:07;96700.41;;;11.66;61.41
62025;BME280;47978;49.118;12.146;2023-04-25T07:21:09;96697.91;;;11.35;62.73
62025;BME280;47978;49.118;12.146;2023-04-25T07:25:10;96708.94;;;10.96;63.55
62025;BME280;47978;49.118;12.146;2023-04-25T07:29:12;96704.06;;;10.85;64.40
62025;BME280;47978;49.118;12.146;2023-04-25T07:33:14;96698.81;;;11.00;64.72
62025;BME280;47978;49.118;12.146;2023-04-25T07:37:16;96704.94;;;11.23;63.54
62025;BME280;47978;49.118;12.146;2023-04-25T07:41:17;96700.53;;;11.78;62.15
62025;BME280;47978;49.118;12.146;2023-04-25T07:45:19;96704.47;;;12.07;60.23
62025;BME280;47978;49.118;12.146;2023-04-25T07:49:22;96702.75;;;11.93;59.20
62025;BME280;47978;49.118;12.146;2023-04-25T07:53:23;96701.47;;;11.44;60.04
62025;BME280;47978;49.118;12.146;2023-04-25T07:57:24;96708.66;;;11.36;60.64
62025;BME280;47978;49.118;12.146;2023-04-25T08:01:26;96705.94;;;11.28;61.29
62025;BME280;47978;49.118;12.146;2023-04-25T08:05:28;96703.59;;;11.47;60.28
62025;BME280;47978;49.118;12.146;2023-04-25T08:09:30;96708.72;;;11.66;60.46
62025;BME280;47978;49.118;12.146;2023-04-25T08:13:31;96706.69;;;12.13;59.67
62025;BME280;47978;49.118;12.146;2023-04-25T08:17:33;96707.44;;;12.02;58.81
62025;BME280;47978;49.118;12.146;2023-04-25T08:21:35;96710.56;;;11.53;58.66
62025;BME280;47978;49.118;12.146;2023-04-25T08:25:37;96714.53;;;11.35;60.15
62025;BME280;47978;49.118;12.146;2023-04-25T08:29:38;96712.53;;;11.53;60.54
62025;BME280;47978;49.118;12.146;2023-04-25T08:33:40;96720.13;;;11.64;59.57
62025;BME280;47978;49.118;12.146;2023-04-25T08:37:42;96725.78;;;11.77;58.91
62025;BME280;47978;49.118;12.146;2023-04-25T08:41:44;96721.53;;;12.38;57.51
62025;BME280;47978;49.118;12.146;2023-04-25T08:45:46;96721.69;;;12.84;57.12
62025;BME280;47978;49.118;12.146;2023-04-25T08:49:47;96724.44;;;12.84;56.57
62025;BME280;47978;49.118;12.146;2023-04-25T08:53:50;96722.56;;;12.76;56.07
62025;BME280;47978;49.118;12.146;2023-04-25T08:57:57;96730.06;;;12.75;56.43
62025;BME280;47978;49.118;12.146;2023-04-25T09:02:00;96732.56;;;12.68;56.47
62025;BME280;47978;49.118;12.146;2023-04-25T09:06:02;96729.41;;;12.78;56.71
62025;BME280;47978;49.118;12.146;2023-04-25T09:10:06;96735.09;;;12.61;54.80
62025;BME280;47978;49.118;12.146;2023-04-25T09:14:13;96739.81;;;12.10;56.57
62025;BME280;47978;49.118;12.146;2023-04-25T09:18:21;96745.81;;;11.74;59.16
62025;BME280;47978;49.118;12.146;2023-04-25T09:22:30;96763.25;;;11.27;64.99
62025;BME280;47978;49.118;12.146;2023-04-25T09:26:33;96760.97;;;11.12;67.83
62025;BME280;47978;49.118;12.146;2023-04-25T09:30:35;96775.97;;;10.67;71.00
62025;BME280;47978;49.118;12.146;2023-04-25T09:34:38;96778.00;;;10.27;71.48
62025;BME280;47978;49.118;12.146;2023-04-25T09:38:40;96785.03;;;9.93;73.31
62025;BME280;47978;49.118;12.146;2023-04-25T09:42:44;96801.50;;;10.16;72.70
62025;BME280;47978;49.118;12.146;2023-04-25T09:46:46;96806.56;;;10.88;70.30
62025;BME280;47978;49.118;12.146;2023-04-25T09:51:03;96811.75;;;11.33;67.63
62025;BME280;47978;49.118;12.146;2023-04-25T09:55:05;96809.41;;;11.61;66.58
62025;BME280;47978;49.118;12.146;2023-04-25T09:59:08;96803.66;;;11.75;68.19
62025;BME280;47978;49.118;12.146;2023-04-25T10:03:10;96814.44;;;12.15;70.59
62025;BME280;47978;49.118;12.146;2023-04-25T10:07:12;96810.47;;;12.54;71.90
62025;BME280;47978;49.118;12.146;2023-04-25T10:11:14;96819.34;;;12.48;67.18
62025;BME280;47978;49.118;12.146;2023-04-25T10:15:17;96822.31;;;12.43;66.67
62025;BME280;47978;49.118;12.146;2023-04-25T10:19:20;96814.53;;;12.57;66.58
62025;BME280;47978;49.118;12.146;2023-04-25T10:23:22;96822.97;;;12.40;64.46
62025;BME280;47978;49.118;12.146;2023-04-25T10:27:24;96817.03;;;11.73;64.76
62025;BME280;47978;49.118;12.146;2023-04-25T10:31:27;96816.19;;;11.90;64.87
62025;BME280;47978;49.118;12.146;2023-04-25T10:35:30;96826.94;;;11.91;64.20
62025;BME280;47978;49.118;12.146;2023-04-25T10:39:31;96818.00;;;12.24;65.24
62025;BME280;47978;49.118;12.146;2023-04-25T10:43:34;96810.25;;;12.38;63.26
62025;BME280;47978;49.118;12.146;2023-04-25T10:47:43;96811.44;;;12.29;62.19
62025;BME280;47978;49.118;12.146;2023-04-25T10:51:44;96807.28;;;12.14;61.98
62025;BME280;47978;49.118;12.146;2023-04-25T10:55:56;96797.81;;;12.15;60.34
62025;BME280;47978;49.118;12.146;2023-04-25T11:00:00;96805.22;;;12.02;61.66
62025;BME280;47978;49.118;12.146;2023-04-25T11:04:03;96811.63;;;12.24;61.61
62025;BME280;47978;49.118;12.146;2023-04-25T11:08:06;96802.84;;;12.51;58.62
62025;BME280;47978;49.118;12.146;2023-04-25T11:12:11;96803.44;;;12.87;56.18
62025;BME280;47978;49.118;12.146;2023-04-25T11:16:13;96804.38;;;12.91;56.00
62025;BME280;47978;49.118;12.146;2023-04-25T11:20:19;96802.59;;;13.07;54.44
62025;BME280;47978;49.118;12.146;2023-04-25T11:24:24;96803.81;;;13.18;56.21
62025;BME280;47978;49.118;12.146;2023-04-25T11:28:26;96809.66;;;12.83;53.34
62025;BME280;47978;49.118;12.146;2023-04-25T11:32:28;96797.03;;;12.86;54.84
62025;BME280;47978;49.118;12.146;2023-04-25T11:36:31;96792.84;;;12.80;52.26
62025;BME280;47978;49.118;12.146;2023-04-25T11:40:32;96795.28;;;13.02;52.41
62025;BME280;47978;49.118;12.146;2023-04-25T11:44:34;96793.94;;;12.88;53.20
62025;BME280;47978;49.118;12.146;2023-04-25T11:48:38;96798.28;;;12.76;52.07
62025;BME280;47978;49.118;12.146;2023-04-25T11:52:41;96797.72;;;12.83;49.82
62025;BME280;47978;49.118;12.146;2023-04-25T11:56:43;96806.03;;;12.62;49.52
62025;BME280;47978;49.118;12.146;2023-04-25T12:00:44;96792.59;;;12.94;48.46
62025;BME280;47978;49.118;12.146;2023-04-25T12:04:51;96788.72;;;13.49;47.33
62025;BME280;47978;49.118;12.146;2023-04-25T12:09:01;96783.47;;;13.93;47.22
62025;BME280;47978;49.118;12.146;2023-04-25T12:13:17;96788.69;;;13.94;47.12
62025;BME280;47978;49.118;12.146;2023-04-25T12:17:18;96791.81;;;14.05;47.10
62025;BME280;47978;49.118;12.146;2023-04-25T12:21:20;96797.88;;;13.74;47.14
62025;BME280;47978;49.118;12.146;2023-04-25T12:29:51;96798.38;;;13.43;48.84
62025;BME280;47978;49.118;12.146;2023-04-25T12:33:52;96800.25;;;13.51;48.16
62025;BME280;47978;49.118;12.146;2023-04-25T12:37:54;96802.72;;;13.32;48.49
62025;BME280;47978;49.118;12.146;2023-04-25T12:41:55;96801.03;;;13.39;50.93
62025;BME280;47978;49.118;12.146;2023-04-25T12:45:58;96805.81;;;13.51;50.28
62025;BME280;47978;49.118;12.146;2023-04-25T12:49:59;96817.44;;;13.65;49.42
62025;BME280;47978;49.118;12.146;2023-04-25T12:54:01;96805.94;;;13.55;48.77
62025;BME280;47978;49.118;12.146;2023-04-25T12:58:02;96821.25;;;13.61;50.64
62025;BME280;47978;49.118;12.146;2023-04-25T13:02:05;96812.06;;;13.93;48.87
62025;BME280;47978;49.118;12.146;2023-04-25T13:06:06;96812.88;;;13.94;46.30
62025;BME280;47978;49.118;12.146;2023-04-25T13:10:08;96814.63;;;13.99;44.70
62025;BME280;47978;49.118;12.146;2023-04-25T13:14:09;96828.59;;;13.78;45.33
62025;BME280;47978;49.118;12.146;2023-04-25T13:18:12;96828.72;;;13.81;46.74
62025;BME280;47978;49.118;12.146;2023-04-25T13:22:14;96833.59;;;13.51;47.16
62025;BME280;47978;49.118;12.146;2023-04-25T13:26:15;96840.00;;;13.31;47.34
62025;BME280;47978;49.118;12.146;2023-04-25T13:30:17;96839.78;;;13.36;48.39
62025;BME280;47978;49.118;12.146;2023-04-25T13:34:19;96845.81;;;13.38;48.27
62025;BME280;47978;49.118;12.146;2023-04-25T13:38:21;96843.69;;;13.35;48.81
62025;BME280;47978;49.118;12.146;2023-04-25T13:42:22;96845.38;;;13.48;49.17
62025;BME280;47978;49.118;12.146;2023-04-25T13:46:24;96854.41;;;13.45;48.33
62025;BME280;47978;49.118;12.146;2023-04-25T13:50:46;96845.78;;;13.17;49.08
62025;BME280;47978;49.118;12.146;2023-04-25T13:54:48;96843.50;;;13.19;48.80
62025;BME280;47978;49.118;12.146;2023-04-25T13:58:49;96849.78;;;13.07;47.99
62025;BME280;47978;49.118;12.146;2023-04-25T14:02:51;96851.00;;;13.18;48.05
62025;BME280;47978;49.118;12.146;2023-04-25T14:06:54;96842.78;;;13.64;49.22
62025;BME280;47978;49.118;12.146;2023-04-25T14:10:57;96852.22;;;13.50;47.64
62025;BME280;47978;49.118;12.146;2023-04-25T14:14:58;96851.94;;;13.64;47.84
62025;BME280;47978;49.118;12.146;2023-04-25T14:18:59;96865.47;;;13.33;46.71
62025;BME280;47978;49.118;12.146;2023-04-25T14:23:02;96865.28;;;13.08;45.57
62025;BME280;47978;49.118;12.146;2023-04-25T14:27:04;96863.44;;;12.91;45.71
62025;BME280;47978;49.118;12.146;2023-04-25T14:31:05;96870.84;;;12.87;47.78
62025;BME280;47978;49.118;12.146;2023-04-25T14:35:07;96877.31;;;12.91;47.41
62025;BME280;47978;49.118;12.146;2023-04-25T14:39:09;96888.22;;;12.75;46.02
62025;BME280;47978;49.118;12.146;2023-04-25T14:43:11;96883.53;;;12.67;45.62
62025;BME280;47978;49.118;12.146;2023-04-25T14:47:12;96892.41;;;12.81;46.16
62025;BME280;47978;49.118;12.146;2023-04-25T14:51:14;96902.41;;;13.03;46.27
62025;BME280;47978;49.118;12.146;2023-04-25T14:55:16;96896.78;;;13.12;45.27
62025;BME280;47978;49.118;12.146;2023-04-25T14:59:18;96902.59;;;13.49;45.40
62025;BME280;47978;49.118;12.146;2023-04-25T15:03:19;96900.16;;;13.81;44.24
62025;BME280;47978;49.118;12.146;2023-04-25T15:07:21;96902.28;;;13.96;43.75
62025;BME280;47978;49.118;12.146;2023-04-25T15:11:24;96903.97;;;14.09;43.96
62025;BME280;47978;49.118;12.146;2023-04-25T15:15:25;96908.44;;;14.02;42.30
62025;BME280;47978;49.118;12.146;2023-04-25T15:19:27;96920.31;;;13.78;42.33
62025;BME280;47978;49.118;12.146;2023-04-25T15:23:29;96923.34;;;13.85;42.26
62025;BME280;47978;49.118;12.146;2023-04-25T15:27:32;96935.84;;;13.58;42.69
62025;BME280;47978;49.118;12.146;2023-04-25T15:31:33;96943.41;;;13.48;43.21
62025;BME280;47978;49.118;12.146;2023-04-25T15:35:34;96936.28;;;13.18;43.90
62025;BME280;47978;49.118;12.146;2023-04-25T15:39:36;96944.13;;;13.16;44.72
62025;BME280;47978;49.118;12.146;2023-04-25T15:43:38;96948.28;;;13.01;45.80
62025;BME280;47978;49.118;12.146;2023-04-25T15:47:40;96943.06;;;12.70;46.40
62025;BME280;47978;49.118;12.146;2023-04-25T15:51:41;96950.78;;;12.55;46.82
62025;BME280;47978;49.118;12.146;2023-04-25T15:55:43;96966.50;;;12.34;46.68
62025;BME280;47978;49.118;12.146;2023-04-25T15:59:47;96961.66;;;12.22;46.37
62025;BME280;47978;49.118;12.146;2023-04-25T16:03:49;96979.28;;;12.09;47.39
62025;BME280;47978;49.118;12.146;2023-04-25T16:07:51;96974.72;;;12.13;47.50
62025;BME280;47978;49.118;12.146;2023-04-25T16:11:53;96976.47;;;12.26;48.50
62025;BME280;47978;49.118;12.146;2023-04-25T16:15:55;96990.84;;;12.20;48.10
62025;BME280;47978;49.118;12.146;2023-04-25T16:19:57;96983.34;;;12.20;48.05
62025;BME280;47978;49.118;12.146;2023-04-25T16:23:58;96986.63;;;12.13;47.49
62025;BME280;47978;49.118;12.146;2023-04-25T16:28:00;96995.44;;;12.15;47.45
62025;BME280;47978;49.118;12.146;2023-04-25T16:32:03;96992.81;;;12.10;47.75
62025;BME280;47978;49.118;12.146;2023-04-25T16:36:05;96997.06;;;11.99;48.88
62025;BME280;47978;49.118;12.146;2023-04-25T16:40:07;97002.13;;;11.97;49.17
62025;BME280;47978;49.118;12.146;2023-04-25T16:44:08;97011.56;;;11.70;48.86
62025;BME280;47978;49.118;12.146;2023-04-25T16:48:11;97009.25;;;11.46;50.04
62025;BME280;47978;49.118;12.146;2023-04-25T16:52:12;97022.41;;;11.32;50.06
62025;BME280;47978;49.118;12.146;2023-04-25T16:56:14;97022.22;;;11.19;50.41
62025;BME280;47978;49.118;12.146;2023-04-25T17:00:16;97025.63;;;11.08;51.01
62025;BME280;47978;49.118;12.146;2023-04-25T17:04:18;97033.88;;;10.90;50.89
62025;BME280;47978;49.118;12.146;2023-04-25T17:08:20;97029.59;;;10.84;51.52
62025;BME280;47978;49.118;12.146;2023-04-25T17:12:21;97043.34;;;10.67;52.26
62025;BME280;47978;49.118;12.146;2023-04-25T17:16:28;97046.94;;;10.67;52.31
62025;BME280;47978;49.118;12.146;2023-04-25T17:20:35;97058.56;;;10.55;52.43
62025;BME280;47978;49.118;12.146;2023-04-25T17:24:37;97064.81;;;10.39;53.12
62025;BME280;47978;49.118;12.146;2023-04-25T17:28:38;97063.06;;;10.43;53.41
62025;BME280;47978;49.118;12.146;2023-04-25T17:32:39;97068.00;;;10.54;53.75
62025;BME280;47978;49.118;12.146;2023-04-25T17:36:42;97065.88;;;10.51;53.59
62025;BME280;47978;49.118;12.146;2023-04-25T17:40:44;97074.53;;;10.58;53.66
62025;BME280;47978;49.118;12.146;2023-04-25T17:44:45;97081.53;;;10.56;54.03
62025;BME280;47978;49.118;12.146;2023-04-25T17:48:47;97086.63;;;10.40;54.22
62025;BME280;47978;49.118;12.146;2023-04-25T17:52:49;97098.81;;;10.39;54.85
62025;BME280;47978;49.118;12.146;2023-04-25T17:56:51;97097.69;;;10.26;54.96
62025;BME280;47978;49.118;12.146;2023-04-25T18:00:52;97103.78;;;10.28;55.28
62025;BME280;47978;49.118;12.146;2023-04-25T18:04:53;97114.03;;;10.14;55.63
62025;BME280;47978;49.118;12.146;2023-04-25T18:08:56;97110.88;;;10.07;56.66
62025;BME280;47978;49.118;12.146;2023-04-25T18:12:58;97112.38;;;9.90;57.34
62025;BME280;47978;49.118;12.146;2023-04-25T18:16:59;97119.75;;;9.81;57.65
62025;BME280;47978;49.118;12.146;2023-04-25T18:21:00;97128.34;;;9.80;58.03
62025;BME280;47978;49.118;12.146;2023-04-25T18:25:04;97129.88;;;9.86;59.76
62025;BME280;47978;49.118;12.146;2023-04-25T18:29:05;97142.47;;;9.64;61.09
62025;BME280;47978;49.118;12.146;2023-04-25T18:33:07;97148.50;;;9.53;62.09
62025;BME280;47978;49.118;12.146;2023-04-25T18:37:09;97162.81;;;9.27;63.21
62025;BME280;47978;49.118;12.146;2023-04-25T18:41:11;97174.78;;;9.09;61.71
62025;BME280;47978;49.118;12.146;2023-04-25T18:45:33;97184.84;;;8.86;64.01
62025;BME280;47978;49.118;12.146;2023-04-25T18:49:34;97193.06;;;8.72;63.81
62025;BME280;47978;49.118;12.146;2023-04-25T18:53:36;97206.81;;;8.58;66.64
62025;BME280;47978;49.118;12.146;2023-04-25T18:57:39;97210.44;;;8.34;68.98
62025;BME280;47978;49.118;12.146;2023-04-25T19:01:40;97221.31;;;8.26;68.87
62025;BME280;47978;49.118;12.146;2023-04-25T19:05:41;97231.88;;;8.19;68.44
62025;BME280;47978;49.118;12.146;2023-04-25T19:09:43;97231.66;;;8.15;64.95
62025;BME280;47978;49.118;12.146;2023-04-25T19:13:45;97239.03;;;8.20;69.26
62025;BME280;47978;49.118;12.146;2023-04-25T19:17:47;97241.78;;;8.20;70.33
62025;BME280;47978;49.118;12.146;2023-04-25T19:21:48;97247.53;;;8.23;70.49
62025;BME280;47978;49.118;12.146;2023-04-25T19:25:50;97247.53;;;8.23;70.57
62025;BME280;47978;49.118;12.146;2023-04-25T19:29:52;97247.50;;;8.04;69.71
62025;BME280;47978;49.118;12.146;2023-04-25T19:33:56;97235.59;;;8.09;70.21
62025;BME280;47978;49.118;12.146;2023-04-25T19:37:57;97232.16;;;7.98;70.26
62025;BME280;47978;49.118;12.146;2023-04-25T19:41:59;97232.81;;;7.90;70.74
62025;BME280;47978;49.118;12.146;2023-04-25T19:46:02;97229.91;;;7.81;71.66
62025;BME280;47978;49.118;12.146;2023-04-25T19:50:03;97236.97;;;7.69;71.88
62025;BME280;47978;49.118;12.146;2023-04-25T19:54:05;97242.63;;;7.53;72.10
62025;BME280;47978;49.118;12.146;2023-04-25T19:58:06;97241.03;;;7.47;72.54
62025;BME280;47978;49.118;12.146;2023-04-25T20:02:09;97247.00;;;7.30;72.94
62025;BME280;47978;49.118;12.146;2023-04-25T20:06:11;97240.28;;;7.17;73.64
62025;BME280;47978;49.118;12.146;2023-04-25T20:10:12;97256.00;;;7.12;73.89
62025;BME280;47978;49.118;12.146;2023-04-25T20:14:13;97251.16;;;6.98;73.78
62025;BME280;47978;49.118;12.146;2023-04-25T20:18:16;97265.91;;;6.79;74.77
62025;BME280;47978;49.118;12.146;2023-04-25T20:22:18;97269.66;;;6.88;75.28
62025;BME280;47978;49.118;12.146;2023-04-25T20:26:19;97270.03;;;6.76;75.25
62025;BME280;47978;49.118;12.146;2023-04-25T20:30:23;97274.97;;;6.40;76.08
62025;BME280;47978;49.118;12.146;2023-04-25T20:34:25;97282.94;;;6.41;75.92
62025;BME280;47978;49.118;12.146;2023-04-25T20:38:27;97286.88;;;6.25;76.07
62025;BME280;47978;49.118;12.146;2023-04-25T20:42:28;97285.81;;;6.21;76.09
62025;BME280;47978;49.118;12.146;2023-04-25T20:46:30;97282.56;;;6.08;76.64
62025;BME280;47978;49.118;12.146;2023-04-25T20:50:33;97276.56;;;6.01;76.93
62025;BME280;47978;49.118;12.146;2023-04-25T20:54:34;97271.91;;;5.92;77.51
62025;BME280;47978;49.118;12.146;2023-04-25T20:58:35;97280.13;;;5.97;77.53
62025;BME280;47978;49.118;12.146;2023-04-25T21:02:37;97285.91;;;5.90;78.07
62025;BME280;47978;49.118;12.146;2023-04-25T21:06:40;97288.94;;;5.89;78.34
62025;BME280;47978;49.118;12.146;2023-04-25T21:10:41;97282.63;;;5.98;78.24
62025;BME280;47978;49.118;12.146;2023-04-25T21:14:42;97290.78;;;6.08;78.33
62025;BME280;47978;49.118;12.146;2023-04-25T21:18:44;97289.59;;;6.25;77.73